sensor_id;sensor_type;location;lat;lon;timestamp;pressure;altitude;pressure_sealevel;temperature;humidity
57885;BME280;43703;51.060;-0.086;2023-03-22T00:02:19;99166.11;;;6.25;79.11
57885;BME280;43703;51.060;-0.086;2023-03-22T00:04:44;99159.26;;;6.80;77.77
57885;BME280;43703;51.060;-0.086;2023-03-22T00:07:10;99147.73;;;6.37;78.53
57885;BME280;43703;51.060;-0.086;2023-03-22T00:09:35;99152.41;;;6.66;78.20
57885;BME280;43703;51.060;-0.086;2023-03-22T00:12:00;99149.76;;;6.85;77.47
57885;BME280;43703;51.060;-0.086;2023-03-22T00:14:25;99148.16;;;6.33;79.80
57885;BME280;43703;51.060;-0.086;2023-03-22T00:16:50;99143.45;;;6.22;79.44
57885;BME280;43703;51.060;-0.086;2023-03-22T00:19:15;99143.59;;;6.57;78.31
57885;BME280;43703;51.060;-0.086;2023-03-22T00:21:40;99141.33;;;6.65;77.70
57885;BME280;43703;51.060;-0.086;2023-03-22T00:24:06;99141.04;;;6.83;78.20
57885;BME280;43703;51.060;-0.086;2023-03-22T00:26:31;99139.80;;;6.38;78.59
57885;BME280;43703;51.060;-0.086;2023-03-22T00:28:56;99132.91;;;6.36;78.27
57885;BME280;43703;51.060;-0.086;2023-03-22T00:31:21;99125.67;;;6.33;78.78
57885;BME280;43703;51.060;-0.086;2023-03-22T00:33:46;99135.37;;;6.44;80.67
57885;BME280;43703;51.060;-0.086;2023-03-22T00:36:11;99117.87;;;6.74;77.41
57885;BME280;43703;51.060;-0.086;2023-03-22T00:38:37;99114.80;;;6.39;79.65
57885;BME280;43703;51.060;-0.086;2023-03-22T00:41:06;99109.38;;;6.13;81.12
57885;BME280;43703;51.060;-0.086;2023-03-22T00:43:26;99106.54;;;6.71;78.92
57885;BME280;43703;51.060;-0.086;2023-03-22T00:45:51;99101.43;;;7.04;77.32
57885;BME280;43703;51.060;-0.086;2023-03-22T00:48:16;99110.27;;;7.18;77.25
57885;BME280;43703;51.060;-0.086;2023-03-22T00:50:41;99107.58;;;6.57;79.73
57885;BME280;43703;51.060;-0.086;2023-03-22T00:53:07;99100.86;;;6.54;80.25
57885;BME280;43703;51.060;-0.086;2023-03-22T00:55:32;99092.19;;;6.46;79.66
57885;BME280;43703;51.060;-0.086;2023-03-22T00:57:57;99087.92;;;6.72;79.81
57885;BME280;43703;51.060;-0.086;2023-03-22T01:00:23;99083.41;;;6.53;81.13
57885;BME280;43703;51.060;-0.086;2023-03-22T01:02:47;99067.45;;;6.44;79.36
57885;BME280;43703;51.060;-0.086;2023-03-22T01:05:13;99068.27;;;6.30;79.42
57885;BME280;43703;51.060;-0.086;2023-03-22T01:07:38;99064.58;;;6.24;81.77
57885;BME280;43703;51.060;-0.086;2023-03-22T01:10:03;99060.66;;;5.79;82.69
57885;BME280;43703;51.060;-0.086;2023-03-22T01:12:28;99052.77;;;6.48;81.49
57885;BME280;43703;51.060;-0.086;2023-03-22T01:14:53;99053.34;;;6.29;82.45
57885;BME280;43703;51.060;-0.086;2023-03-22T01:17:18;99036.89;;;5.89;83.23
57885;BME280;43703;51.060;-0.086;2023-03-22T01:19:43;99043.51;;;6.15;83.20
57885;BME280;43703;51.060;-0.086;2023-03-22T01:22:08;99036.21;;;6.36;82.24
57885;BME280;43703;51.060;-0.086;2023-03-22T01:24:33;99034.36;;;6.28;81.73
57885;BME280;43703;51.060;-0.086;2023-03-22T01:26:58;99019.83;;;6.08;81.45
57885;BME280;43703;51.060;-0.086;2023-03-22T01:29:24;99015.90;;;6.71;80.86
57885;BME280;43703;51.060;-0.086;2023-03-22T01:31:49;99018.58;;;6.17;82.57
57885;BME280;43703;51.060;-0.086;2023-03-22T01:34:13;99008.38;;;6.41;80.73
57885;BME280;43703;51.060;-0.086;2023-03-22T01:36:39;99005.18;;;6.79;79.26
57885;BME280;43703;51.060;-0.086;2023-03-22T01:39:04;99003.36;;;6.41;80.06
57885;BME280;43703;51.060;-0.086;2023-03-22T01:41:30;99000.06;;;6.25;81.16
57885;BME280;43703;51.060;-0.086;2023-03-22T01:44:07;98996.81;;;6.23;81.96
57885;BME280;43703;51.060;-0.086;2023-03-22T01:46:19;98991.57;;;6.17;81.94
57885;BME280;43703;51.060;-0.086;2023-03-22T01:48:45;98991.56;;;6.07;82.19
57885;BME280;43703;51.060;-0.086;2023-03-22T01:51:13;98988.24;;;5.80;84.52
57885;BME280;43703;51.060;-0.086;2023-03-22T01:53:39;98985.72;;;6.07;83.22
57885;BME280;43703;51.060;-0.086;2023-03-22T01:56:01;98981.59;;;6.18;83.61
57885;BME280;43703;51.060;-0.086;2023-03-22T01:58:26;98981.82;;;6.31;82.90
57885;BME280;43703;51.060;-0.086;2023-03-22T02:00:52;98967.89;;;6.28;81.79
57885;BME280;43703;51.060;-0.086;2023-03-22T02:03:21;98961.96;;;6.44;82.39
57885;BME280;43703;51.060;-0.086;2023-03-22T02:05:41;98954.95;;;6.55;80.97
57885;BME280;43703;51.060;-0.086;2023-03-22T02:08:06;98963.47;;;6.44;82.42
57885;BME280;43703;51.060;-0.086;2023-03-22T02:10:31;98962.79;;;5.83;84.96
57885;BME280;43703;51.060;-0.086;2023-03-22T02:13:07;98959.02;;;5.67;85.93
57885;BME280;43703;51.060;-0.086;2023-03-22T02:15:24;98944.40;;;6.01;84.35
57885;BME280;43703;51.060;-0.086;2023-03-22T02:17:55;98959.04;;;6.13;85.56
57885;BME280;43703;51.060;-0.086;2023-03-22T02:22:48;98943.38;;;5.77;85.19
57885;BME280;43703;51.060;-0.086;2023-03-22T02:27:34;98959.20;;;5.89;86.85
57885;BME280;43703;51.060;-0.086;2023-03-22T02:29:59;98939.78;;;5.95;87.20
57885;BME280;43703;51.060;-0.086;2023-03-22T02:34:53;98926.66;;;5.55;91.46
57885;BME280;43703;51.060;-0.086;2023-03-22T02:39:37;98934.86;;;5.78;88.64
57885;BME280;43703;51.060;-0.086;2023-03-22T02:42:10;98921.21;;;5.65;89.62
57885;BME280;43703;51.060;-0.086;2023-03-22T02:44:28;98903.62;;;5.73;89.02
57885;BME280;43703;51.060;-0.086;2023-03-22T02:46:58;98912.43;;;6.69;85.17
57885;BME280;43703;51.060;-0.086;2023-03-22T02:49:20;98927.60;;;5.88;85.47
57885;BME280;43703;51.060;-0.086;2023-03-22T02:51:44;98910.92;;;5.80;86.69
57885;BME280;43703;51.060;-0.086;2023-03-22T02:54:10;98903.87;;;5.61;88.53
57885;BME280;43703;51.060;-0.086;2023-03-22T02:56:34;98896.31;;;5.70;89.01
57885;BME280;43703;51.060;-0.086;2023-03-22T02:58:59;98900.77;;;5.41;89.57
57885;BME280;43703;51.060;-0.086;2023-03-22T03:01:25;98902.03;;;5.45;89.26
57885;BME280;43703;51.060;-0.086;2023-03-22T03:03:48;98897.98;;;5.41;89.83
57885;BME280;43703;51.060;-0.086;2023-03-22T03:06:15;98897.15;;;5.94;87.98
57885;BME280;43703;51.060;-0.086;2023-03-22T03:08:38;98882.59;;;5.20;91.53
57885;BME280;43703;51.060;-0.086;2023-03-22T03:11:03;98889.38;;;5.21;91.14
57885;BME280;43703;51.060;-0.086;2023-03-22T03:13:28;98891.17;;;5.52;92.34
57885;BME280;43703;51.060;-0.086;2023-03-22T03:15:56;98870.35;;;5.58;91.83
57885;BME280;43703;51.060;-0.086;2023-03-22T03:18:28;98880.41;;;5.56;92.16
57885;BME280;43703;51.060;-0.086;2023-03-22T03:20:52;98875.28;;;5.50;90.96
57885;BME280;43703;51.060;-0.086;2023-03-22T03:23:18;98877.85;;;5.29;92.48
57885;BME280;43703;51.060;-0.086;2023-03-22T03:25:38;98854.63;;;5.65;90.64
57885;BME280;43703;51.060;-0.086;2023-03-22T03:28:04;98861.44;;;6.27;89.19
57885;BME280;43703;51.060;-0.086;2023-03-22T03:30:31;98862.23;;;5.58;91.20
57885;BME280;43703;51.060;-0.086;2023-03-22T03:32:54;98859.60;;;5.55;92.28
57885;BME280;43703;51.060;-0.086;2023-03-22T03:35:20;98858.40;;;5.88;90.88
57885;BME280;43703;51.060;-0.086;2023-03-22T03:37:45;98854.11;;;6.44;88.26
57885;BME280;43703;51.060;-0.086;2023-03-22T03:40:10;98836.28;;;5.55;92.47
57885;BME280;43703;51.060;-0.086;2023-03-22T03:42:32;98847.14;;;5.36;91.39
57885;BME280;43703;51.060;-0.086;2023-03-22T03:44:57;98854.71;;;5.39;92.47
57885;BME280;43703;51.060;-0.086;2023-03-22T03:47:28;98843.88;;;5.92;91.72
57885;BME280;43703;51.060;-0.086;2023-03-22T03:49:47;98838.92;;;5.21;94.11
57885;BME280;43703;51.060;-0.086;2023-03-22T03:52:13;98834.85;;;5.69;92.88
57885;BME280;43703;51.060;-0.086;2023-03-22T03:54:37;98838.63;;;5.61;93.13
57885;BME280;43703;51.060;-0.086;2023-03-22T03:57:03;98832.79;;;5.44;92.09
57885;BME280;43703;51.060;-0.086;2023-03-22T03:59:28;98836.23;;;4.85;96.49
57885;BME280;43703;51.060;-0.086;2023-03-22T04:01:54;98831.96;;;5.75;93.59
57885;BME280;43703;51.060;-0.086;2023-03-22T04:04:22;98840.73;;;5.55;93.09
57885;BME280;43703;51.060;-0.086;2023-03-22T04:06:44;98834.31;;;5.16;94.66
57885;BME280;43703;51.060;-0.086;2023-03-22T04:09:10;98833.93;;;5.25;94.86
57885;BME280;43703;51.060;-0.086;2023-03-22T04:11:36;98830.87;;;5.89;92.29
57885;BME280;43703;51.060;-0.086;2023-03-22T04:14:01;98832.72;;;5.02;95.09
57885;BME280;43703;51.060;-0.086;2023-03-22T04:16:27;98828.30;;;5.80;94.45
57885;BME280;43703;51.060;-0.086;2023-03-22T04:18:51;98825.24;;;5.43;94.07
57885;BME280;43703;51.060;-0.086;2023-03-22T04:21:17;98818.72;;;5.44;94.47
57885;BME280;43703;51.060;-0.086;2023-03-22T04:23:42;98812.63;;;5.28;95.63
57885;BME280;43703;51.060;-0.086;2023-03-22T04:26:07;98808.76;;;5.51;93.56
57885;BME280;43703;51.060;-0.086;2023-03-22T04:28:32;98818.13;;;5.57;92.64
57885;BME280;43703;51.060;-0.086;2023-03-22T04:30:58;98807.12;;;5.35;94.34
57885;BME280;43703;51.060;-0.086;2023-03-22T04:33:24;98808.86;;;5.18;96.05
57885;BME280;43703;51.060;-0.086;2023-03-22T04:35:49;98806.84;;;6.13;92.29
57885;BME280;43703;51.060;-0.086;2023-03-22T04:38:14;98803.00;;;5.47;93.46
57885;BME280;43703;51.060;-0.086;2023-03-22T04:40:39;98809.03;;;5.35;96.06
57885;BME280;43703;51.060;-0.086;2023-03-22T04:43:05;98811.30;;;5.14;97.02
57885;BME280;43703;51.060;-0.086;2023-03-22T04:45:30;98791.36;;;5.42;95.66
57885;BME280;43703;51.060;-0.086;2023-03-22T04:47:55;98801.38;;;5.74;94.39
57885;BME280;43703;51.060;-0.086;2023-03-22T04:50:20;98807.05;;;5.30;97.23
57885;BME280;43703;51.060;-0.086;2023-03-22T04:52:46;98797.16;;;5.51;95.38
57885;BME280;43703;51.060;-0.086;2023-03-22T04:55:11;98800.56;;;4.92;97.64
57885;BME280;43703;51.060;-0.086;2023-03-22T04:57:36;98795.40;;;5.55;96.49
57885;BME280;43703;51.060;-0.086;2023-03-22T05:00:01;98796.29;;;4.98;97.48
57885;BME280;43703;51.060;-0.086;2023-03-22T05:02:26;98785.80;;;5.25;95.88
57885;BME280;43703;51.060;-0.086;2023-03-22T05:04:51;98803.00;;;5.71;94.24
57885;BME280;43703;51.060;-0.086;2023-03-22T05:07:16;98798.89;;;5.86;94.53
57885;BME280;43703;51.060;-0.086;2023-03-22T05:09:41;98799.84;;;5.33;95.38
57885;BME280;43703;51.060;-0.086;2023-03-22T05:12:06;98794.20;;;5.34;95.39
57885;BME280;43703;51.060;-0.086;2023-03-22T05:14:31;98797.06;;;5.23;95.96
57885;BME280;43703;51.060;-0.086;2023-03-22T05:16:57;98792.59;;;6.01;92.64
57885;BME280;43703;51.060;-0.086;2023-03-22T05:19:22;98789.86;;;5.14;94.30
57885;BME280;43703;51.060;-0.086;2023-03-22T05:21:48;98795.21;;;5.19;97.57
57885;BME280;43703;51.060;-0.086;2023-03-22T05:24:13;98793.12;;;5.29;97.35
57885;BME280;43703;51.060;-0.086;2023-03-22T05:26:38;98791.24;;;5.16;96.91
57885;BME280;43703;51.060;-0.086;2023-03-22T05:29:03;98786.91;;;5.75;94.87
57885;BME280;43703;51.060;-0.086;2023-03-22T05:31:28;98785.66;;;5.79;95.45
57885;BME280;43703;51.060;-0.086;2023-03-22T05:33:53;98790.81;;;5.23;96.03
57885;BME280;43703;51.060;-0.086;2023-03-22T05:36:19;98785.67;;;5.34;95.17
57885;BME280;43703;51.060;-0.086;2023-03-22T05:38:43;98792.69;;;4.69;96.92
57885;BME280;43703;51.060;-0.086;2023-03-22T05:41:08;98789.80;;;5.45;96.79
57885;BME280;43703;51.060;-0.086;2023-03-22T05:43:34;98782.84;;;5.95;93.21
57885;BME280;43703;51.060;-0.086;2023-03-22T05:45:59;98785.45;;;5.55;94.54
57885;BME280;43703;51.060;-0.086;2023-03-22T05:48:25;98790.82;;;5.88;96.03
57885;BME280;43703;51.060;-0.086;2023-03-22T05:50:49;98790.22;;;5.51;96.10
57885;BME280;43703;51.060;-0.086;2023-03-22T05:53:15;98789.48;;;5.77;95.17
57885;BME280;43703;51.060;-0.086;2023-03-22T05:55:41;98794.98;;;5.23;96.90
57885;BME280;43703;51.060;-0.086;2023-03-22T05:58:05;98788.19;;;4.99;98.45
57885;BME280;43703;51.060;-0.086;2023-03-22T06:00:31;98802.45;;;5.70;97.72
57885;BME280;43703;51.060;-0.086;2023-03-22T06:02:56;98796.34;;;5.92;95.40
57885;BME280;43703;51.060;-0.086;2023-03-22T06:05:21;98804.26;;;5.96;94.00
57885;BME280;43703;51.060;-0.086;2023-03-22T06:07:45;98784.71;;;5.66;96.08
57885;BME280;43703;51.060;-0.086;2023-03-22T06:10:12;98796.90;;;5.71;95.29
57885;BME280;43703;51.060;-0.086;2023-03-22T06:12:36;98791.87;;;5.98;95.08
57885;BME280;43703;51.060;-0.086;2023-03-22T06:15:01;98789.64;;;6.02;94.48
57885;BME280;43703;51.060;-0.086;2023-03-22T06:17:26;98799.44;;;5.76;94.64
57885;BME280;43703;51.060;-0.086;2023-03-22T06:19:51;98784.95;;;5.81;94.24
57885;BME280;43703;51.060;-0.086;2023-03-22T06:22:16;98782.02;;;5.36;96.54
57885;BME280;43703;51.060;-0.086;2023-03-22T06:24:41;98784.51;;;4.99;97.74
57885;BME280;43703;51.060;-0.086;2023-03-22T06:27:06;98797.07;;;5.22;98.77
57885;BME280;43703;51.060;-0.086;2023-03-22T06:29:31;98785.23;;;5.56;97.31
57885;BME280;43703;51.060;-0.086;2023-03-22T06:31:56;98794.82;;;5.20;97.46
57885;BME280;43703;51.060;-0.086;2023-03-22T06:34:21;98787.40;;;5.73;96.26
57885;BME280;43703;51.060;-0.086;2023-03-22T06:36:47;98797.48;;;5.73;95.75
57885;BME280;43703;51.060;-0.086;2023-03-22T06:39:12;98796.00;;;5.86;96.41
57885;BME280;43703;51.060;-0.086;2023-03-22T06:41:37;98793.83;;;5.67;97.45
57885;BME280;43703;51.060;-0.086;2023-03-22T06:44:03;98794.13;;;5.91;96.49
57885;BME280;43703;51.060;-0.086;2023-03-22T06:46:28;98796.93;;;5.10;99.21
57885;BME280;43703;51.060;-0.086;2023-03-22T06:48:54;98799.68;;;5.44;98.25
57885;BME280;43703;51.060;-0.086;2023-03-22T06:51:19;98782.56;;;5.33;100.00
57885;BME280;43703;51.060;-0.086;2023-03-22T06:53:44;98790.49;;;5.38;100.00
57885;BME280;43703;51.060;-0.086;2023-03-22T06:56:10;98785.61;;;5.23;100.00
57885;BME280;43703;51.060;-0.086;2023-03-22T06:58:35;98798.57;;;5.42;100.00
57885;BME280;43703;51.060;-0.086;2023-03-22T07:01:00;98787.42;;;5.36;99.62
57885;BME280;43703;51.060;-0.086;2023-03-22T07:03:25;98781.02;;;5.45;98.71
57885;BME280;43703;51.060;-0.086;2023-03-22T07:05:51;98776.15;;;5.63;98.15
57885;BME280;43703;51.060;-0.086;2023-03-22T07:08:16;98761.08;;;5.26;100.00
57885;BME280;43703;51.060;-0.086;2023-03-22T07:10:41;98773.91;;;5.51;97.99
57885;BME280;43703;51.060;-0.086;2023-03-22T07:13:06;98780.45;;;5.94;97.96
57885;BME280;43703;51.060;-0.086;2023-03-22T07:15:31;98762.69;;;6.28;95.11
57885;BME280;43703;51.060;-0.086;2023-03-22T07:17:59;98766.03;;;5.95;95.32
57885;BME280;43703;51.060;-0.086;2023-03-22T07:20:22;98765.11;;;6.66;94.45
57885;BME280;43703;51.060;-0.086;2023-03-22T07:22:48;98771.38;;;6.04;95.44
57885;BME280;43703;51.060;-0.086;2023-03-22T07:25:13;98763.54;;;6.14;94.58
57885;BME280;43703;51.060;-0.086;2023-03-22T07:27:38;98780.44;;;5.80;95.66
57885;BME280;43703;51.060;-0.086;2023-03-22T07:30:05;98782.68;;;6.46;93.80
57885;BME280;43703;51.060;-0.086;2023-03-22T07:32:29;98787.76;;;5.89;96.27
57885;BME280;43703;51.060;-0.086;2023-03-22T07:34:55;98792.89;;;6.46;94.70
57885;BME280;43703;51.060;-0.086;2023-03-22T07:37:20;98792.80;;;5.79;95.93
57885;BME280;43703;51.060;-0.086;2023-03-22T07:39:45;98799.81;;;5.47;98.22
57885;BME280;43703;51.060;-0.086;2023-03-22T07:42:10;98804.37;;;5.40;100.00
57885;BME280;43703;51.060;-0.086;2023-03-22T07:44:35;98800.05;;;5.98;100.00
57885;BME280;43703;51.060;-0.086;2023-03-22T07:47:01;98789.99;;;5.98;96.16
57885;BME280;43703;51.060;-0.086;2023-03-22T07:49:26;98806.97;;;5.92;98.43
57885;BME280;43703;51.060;-0.086;2023-03-22T07:51:51;98803.07;;;6.10;97.20
57885;BME280;43703;51.060;-0.086;2023-03-22T07:54:22;98805.07;;;5.69;98.65
57885;BME280;43703;51.060;-0.086;2023-03-22T07:56:42;98797.67;;;5.82;97.34
57885;BME280;43703;51.060;-0.086;2023-03-22T07:59:07;98783.88;;;6.03;96.25
57885;BME280;43703;51.060;-0.086;2023-03-22T08:01:32;98777.84;;;5.63;100.00
57885;BME280;43703;51.060;-0.086;2023-03-22T08:03:57;98781.22;;;5.91;98.72
57885;BME280;43703;51.060;-0.086;2023-03-22T08:06:22;98786.81;;;5.54;99.29
57885;BME280;43703;51.060;-0.086;2023-03-22T08:08:48;98784.07;;;5.28;100.00
57885;BME280;43703;51.060;-0.086;2023-03-22T08:11:13;98777.38;;;5.65;100.00
57885;BME280;43703;51.060;-0.086;2023-03-22T08:13:38;98781.50;;;5.52;100.00
57885;BME280;43703;51.060;-0.086;2023-03-22T08:16:04;98792.09;;;5.93;99.50
57885;BME280;43703;51.060;-0.086;2023-03-22T08:18:29;98787.30;;;5.99;97.85
57885;BME280;43703;51.060;-0.086;2023-03-22T08:20:54;98783.19;;;5.97;98.94
57885;BME280;43703;51.060;-0.086;2023-03-22T08:23:19;98770.37;;;6.07;96.81
57885;BME280;43703;51.060;-0.086;2023-03-22T08:25:45;98774.90;;;5.76;98.74
57885;BME280;43703;51.060;-0.086;2023-03-22T08:28:19;98781.33;;;6.32;95.58
57885;BME280;43703;51.060;-0.086;2023-03-22T08:30:35;98781.46;;;6.04;97.12
57885;BME280;43703;51.060;-0.086;2023-03-22T08:33:05;98784.07;;;5.68;100.00
57885;BME280;43703;51.060;-0.086;2023-03-22T08:35:26;98773.80;;;6.38;98.21
57885;BME280;43703;51.060;-0.086;2023-03-22T08:37:53;98785.65;;;5.68;99.96
57885;BME280;43703;51.060;-0.086;2023-03-22T08:40:16;98786.34;;;6.26;99.17
57885;BME280;43703;51.060;-0.086;2023-03-22T08:42:41;98784.59;;;5.79;100.00
57885;BME280;43703;51.060;-0.086;2023-03-22T08:45:09;98780.92;;;6.02;100.00
57885;BME280;43703;51.060;-0.086;2023-03-22T08:47:33;98784.73;;;6.34;97.37
57885;BME280;43703;51.060;-0.086;2023-03-22T08:49:57;98775.19;;;6.27;96.99
57885;BME280;43703;51.060;-0.086;2023-03-22T08:52:22;98778.50;;;6.15;99.03
57885;BME280;43703;51.060;-0.086;2023-03-22T08:54:47;98770.59;;;5.79;99.38
57885;BME280;43703;51.060;-0.086;2023-03-22T08:57:13;98786.81;;;5.98;99.33
57885;BME280;43703;51.060;-0.086;2023-03-22T08:59:38;98785.02;;;5.90;100.00
57885;BME280;43703;51.060;-0.086;2023-03-22T09:02:03;98792.97;;;6.34;100.00
57885;BME280;43703;51.060;-0.086;2023-03-22T09:04:29;98792.87;;;5.99;99.79
57885;BME280;43703;51.060;-0.086;2023-03-22T09:06:54;98806.97;;;6.54;100.00
57885;BME280;43703;51.060;-0.086;2023-03-22T09:09:19;98794.81;;;6.11;100.00
57885;BME280;43703;51.060;-0.086;2023-03-22T09:11:44;98778.72;;;5.53;100.00
57885;BME280;43703;51.060;-0.086;2023-03-22T09:14:09;98784.56;;;6.13;100.00
57885;BME280;43703;51.060;-0.086;2023-03-22T09:16:34;98792.77;;;6.33;100.00
57885;BME280;43703;51.060;-0.086;2023-03-22T09:18:59;98783.19;;;5.71;100.00
57885;BME280;43703;51.060;-0.086;2023-03-22T09:21:24;98793.80;;;6.22;100.00
57885;BME280;43703;51.060;-0.086;2023-03-22T09:23:49;98791.38;;;6.14;100.00
57885;BME280;43703;51.060;-0.086;2023-03-22T09:26:14;98785.94;;;6.16;100.00
57885;BME280;43703;51.060;-0.086;2023-03-22T09:28:40;98801.76;;;6.32;100.00
57885;BME280;43703;51.060;-0.086;2023-03-22T09:31:07;98800.85;;;6.45;99.12
57885;BME280;43703;51.060;-0.086;2023-03-22T09:33:30;98800.48;;;5.80;100.00
57885;BME280;43703;51.060;-0.086;2023-03-22T09:35:56;98798.88;;;6.50;100.00
57885;BME280;43703;51.060;-0.086;2023-03-22T09:38:21;98801.85;;;6.67;99.64
57885;BME280;43703;51.060;-0.086;2023-03-22T09:40:50;98803.27;;;6.93;98.33
57885;BME280;43703;51.060;-0.086;2023-03-22T09:43:11;98797.37;;;6.11;100.00
57885;BME280;43703;51.060;-0.086;2023-03-22T09:45:38;98792.40;;;6.62;97.83
57885;BME280;43703;51.060;-0.086;2023-03-22T09:48:03;98803.10;;;6.64;98.34
57885;BME280;43703;51.060;-0.086;2023-03-22T09:50:28;98798.97;;;7.44;93.64
57885;BME280;43703;51.060;-0.086;2023-03-22T09:52:51;98807.30;;;6.71;94.16
57885;BME280;43703;51.060;-0.086;2023-03-22T09:55:18;98804.66;;;6.69;96.84
57885;BME280;43703;51.060;-0.086;2023-03-22T09:57:40;98807.25;;;6.95;96.69
57885;BME280;43703;51.060;-0.086;2023-03-22T10:00:12;98805.05;;;6.97;95.15
57885;BME280;43703;51.060;-0.086;2023-03-22T10:02:39;98806.05;;;6.69;99.03
57885;BME280;43703;51.060;-0.086;2023-03-22T10:05:01;98809.09;;;6.17;100.00
57885;BME280;43703;51.060;-0.086;2023-03-22T10:07:26;98804.39;;;5.70;100.00
57885;BME280;43703;51.060;-0.086;2023-03-22T10:09:56;98804.48;;;6.37;100.00
57885;BME280;43703;51.060;-0.086;2023-03-22T10:12:24;98802.19;;;6.43;100.00
57885;BME280;43703;51.060;-0.086;2023-03-22T10:14:39;98799.86;;;6.44;100.00
57885;BME280;43703;51.060;-0.086;2023-03-22T10:17:08;98799.30;;;6.22;100.00
57885;BME280;43703;51.060;-0.086;2023-03-22T10:19:32;98797.95;;;6.07;100.00
57885;BME280;43703;51.060;-0.086;2023-03-22T10:21:57;98789.24;;;6.03;100.00
57885;BME280;43703;51.060;-0.086;2023-03-22T10:24:24;98784.01;;;6.57;100.00
57885;BME280;43703;51.060;-0.086;2023-03-22T10:26:47;98778.41;;;6.70;100.00
57885;BME280;43703;51.060;-0.086;2023-03-22T10:29:17;98789.20;;;6.49;100.00
57885;BME280;43703;51.060;-0.086;2023-03-22T10:31:42;98793.57;;;6.12;100.00
57885;BME280;43703;51.060;-0.086;2023-03-22T10:34:06;98794.06;;;6.73;99.73
57885;BME280;43703;51.060;-0.086;2023-03-22T10:36:32;98796.95;;;6.92;98.25
57885;BME280;43703;51.060;-0.086;2023-03-22T10:38:57;98803.85;;;6.67;100.00
57885;BME280;43703;51.060;-0.086;2023-03-22T10:41:21;98807.32;;;6.37;100.00
57885;BME280;43703;51.060;-0.086;2023-03-22T10:43:47;98803.64;;;6.96;98.21
57885;BME280;43703;51.060;-0.086;2023-03-22T10:46:14;98794.17;;;7.04;98.36
57885;BME280;43703;51.060;-0.086;2023-03-22T10:48:39;98805.72;;;6.55;100.00
57885;BME280;43703;51.060;-0.086;2023-03-22T10:51:00;98807.73;;;6.27;100.00
57885;BME280;43703;51.060;-0.086;2023-03-22T10:53:35;98799.76;;;6.45;99.95
57885;BME280;43703;51.060;-0.086;2023-03-22T10:55:51;98811.40;;;6.36;100.00
57885;BME280;43703;51.060;-0.086;2023-03-22T10:58:18;98811.74;;;6.70;99.12
57885;BME280;43703;51.060;-0.086;2023-03-22T11:00:44;98809.79;;;6.78;100.00
57885;BME280;43703;51.060;-0.086;2023-03-22T11:03:07;98801.13;;;6.53;99.48
57885;BME280;43703;51.060;-0.086;2023-03-22T11:05:32;98808.16;;;6.68;99.73
57885;BME280;43703;51.060;-0.086;2023-03-22T11:07:58;98804.78;;;7.18;97.22
57885;BME280;43703;51.060;-0.086;2023-03-22T11:10:25;98803.85;;;6.35;100.00
57885;BME280;43703;51.060;-0.086;2023-03-22T11:12:50;98809.65;;;7.00;99.40
57885;BME280;43703;51.060;-0.086;2023-03-22T11:15:18;98805.57;;;7.13;97.70
57885;BME280;43703;51.060;-0.086;2023-03-22T11:17:38;98808.88;;;6.83;97.82
57885;BME280;43703;51.060;-0.086;2023-03-22T11:20:04;98805.52;;;7.34;96.77
57885;BME280;43703;51.060;-0.086;2023-03-22T11:22:32;98807.05;;;6.81;99.07
57885;BME280;43703;51.060;-0.086;2023-03-22T11:24:54;98812.95;;;7.56;96.40
57885;BME280;43703;51.060;-0.086;2023-03-22T11:27:20;98817.98;;;7.31;95.49
57885;BME280;43703;51.060;-0.086;2023-03-22T11:29:45;98811.36;;;7.01;97.52
57885;BME280;43703;51.060;-0.086;2023-03-22T11:34:34;98810.55;;;6.46;100.00
57885;BME280;43703;51.060;-0.086;2023-03-22T11:37:00;98812.66;;;6.81;100.00
57885;BME280;43703;51.060;-0.086;2023-03-22T11:39:26;98812.27;;;6.68;100.00
57885;BME280;43703;51.060;-0.086;2023-03-22T11:41:50;98803.86;;;6.80;100.00
57885;BME280;43703;51.060;-0.086;2023-03-22T11:44:17;98804.64;;;6.53;100.00
57885;BME280;43703;51.060;-0.086;2023-03-22T11:46:48;98809.13;;;6.89;99.42
57885;BME280;43703;51.060;-0.086;2023-03-22T11:49:10;98812.37;;;7.88;94.68
57885;BME280;43703;51.060;-0.086;2023-03-22T11:51:34;98804.02;;;7.64;95.23
57885;BME280;43703;51.060;-0.086;2023-03-22T11:54:05;98812.91;;;6.80;100.00
57885;BME280;43703;51.060;-0.086;2023-03-22T11:56:29;98814.35;;;6.93;100.00
57885;BME280;43703;51.060;-0.086;2023-03-22T11:58:56;98809.15;;;6.98;100.00
57885;BME280;43703;51.060;-0.086;2023-03-22T12:01:17;98800.57;;;6.69;100.00
57885;BME280;43703;51.060;-0.086;2023-03-22T12:03:39;98797.96;;;6.61;100.00
57885;BME280;43703;51.060;-0.086;2023-03-22T12:06:17;98796.04;;;6.63;100.00
57885;BME280;43703;51.060;-0.086;2023-03-22T12:08:36;98800.85;;;7.07;98.62
57885;BME280;43703;51.060;-0.086;2023-03-22T12:10:59;98792.20;;;7.19;98.06
57885;BME280;43703;51.060;-0.086;2023-03-22T12:13:22;98800.78;;;7.45;96.34
57885;BME280;43703;51.060;-0.086;2023-03-22T12:15:47;98806.27;;;7.38;97.66
57885;BME280;43703;51.060;-0.086;2023-03-22T12:18:12;98791.78;;;6.75;97.75
57885;BME280;43703;51.060;-0.086;2023-03-22T12:20:39;98800.76;;;7.11;97.12
57885;BME280;43703;51.060;-0.086;2023-03-22T12:22:59;98785.75;;;6.93;98.06
57885;BME280;43703;51.060;-0.086;2023-03-22T12:25:28;98782.98;;;6.96;98.94
57885;BME280;43703;51.060;-0.086;2023-03-22T12:27:53;98774.69;;;8.02;95.88
57885;BME280;43703;51.060;-0.086;2023-03-22T12:30:17;98781.07;;;8.00;94.31
57885;BME280;43703;51.060;-0.086;2023-03-22T12:32:42;98785.41;;;7.67;93.25
57885;BME280;43703;51.060;-0.086;2023-03-22T12:35:06;98780.33;;;7.45;94.51
57885;BME280;43703;51.060;-0.086;2023-03-22T12:37:32;98784.37;;;7.55;94.45
57885;BME280;43703;51.060;-0.086;2023-03-22T12:39:59;98787.34;;;7.83;96.04
57885;BME280;43703;51.060;-0.086;2023-03-22T12:42:25;98789.92;;;7.60;96.69
57885;BME280;43703;51.060;-0.086;2023-03-22T12:44:46;98796.60;;;7.33;99.38
57885;BME280;43703;51.060;-0.086;2023-03-22T12:47:16;98794.76;;;7.91;95.82
57885;BME280;43703;51.060;-0.086;2023-03-22T12:49:41;98804.71;;;8.47;92.97
57885;BME280;43703;51.060;-0.086;2023-03-22T12:52:10;98804.19;;;7.98;93.01
57885;BME280;43703;51.060;-0.086;2023-03-22T12:54:29;98800.08;;;7.72;93.11
57885;BME280;43703;51.060;-0.086;2023-03-22T12:56:54;98802.35;;;8.31;91.66
57885;BME280;43703;51.060;-0.086;2023-03-22T12:59:22;98801.60;;;7.59;96.39